sensor_id;sensor_type;location;lat;lon;timestamp;P1;durP1;ratioP1;P2;durP2;ratioP2
44428;SDS011;30134;47.866;-4.222;2023-08-17T00:02:13;256.77;;;180.95;;
44428;SDS011;30134;47.866;-4.222;2023-08-17T00:04:58;254.70;;;181.70;;
44428;SDS011;30134;47.866;-4.222;2023-08-17T00:07:24;225.05;;;152.85;;
44428;SDS011;30134;47.866;-4.222;2023-08-17T00:09:50;177.32;;;128.27;;
44428;SDS011;30134;47.866;-4.222;2023-08-17T00:12:16;148.38;;;104.47;;
44428;SDS011;30134;47.866;-4.222;2023-08-17T00:14:46;129.38;;;92.05;;
44428;SDS011;30134;47.866;-4.222;2023-08-17T00:17:30;118.55;;;86.35;;
44428;SDS011;30134;47.866;-4.222;2023-08-17T00:20:00;112.60;;;80.00;;
44428;SDS011;30134;47.866;-4.222;2023-08-17T00:22:30;113.13;;;78.57;;
44428;SDS011;30134;47.866;-4.222;2023-08-17T00:24:56;105.78;;;78.78;;
44428;SDS011;30134;47.866;-4.222;2023-08-17T00:27:22;102.78;;;73.72;;
44428;SDS011;30134;47.866;-4.222;2023-08-17T00:29:48;98.07;;;69.60;;
44428;SDS011;30134;47.866;-4.222;2023-08-17T00:32:14;95.40;;;68.80;;
44428;SDS011;30134;47.866;-4.222;2023-08-17T00:34:58;89.45;;;63.83;;
44428;SDS011;30134;47.866;-4.222;2023-08-17T00:37:25;82.50;;;59.88;;
44428;SDS011;30134;47.866;-4.222;2023-08-17T00:39:51;79.80;;;57.00;;
44428;SDS011;30134;47.866;-4.222;2023-08-17T00:42:17;81.03;;;57.67;;
44428;SDS011;30134;47.866;-4.222;2023-08-17T00:44:43;75.25;;;54.22;;
44428;SDS011;30134;47.866;-4.222;2023-08-17T00:50:12;65.75;;;47.80;;
44428;SDS011;30134;47.866;-4.222;2023-08-17T00:52:40;67.95;;;49.38;;
44428;SDS011;30134;47.866;-4.222;2023-08-17T00:55:07;67.82;;;48.25;;
44428;SDS011;30134;47.866;-4.222;2023-08-17T01:00:39;63.90;;;45.40;;
44428;SDS011;30134;47.866;-4.222;2023-08-17T01:05:51;58.40;;;42.65;;
44428;SDS011;30134;47.866;-4.222;2023-08-17T01:08:17;54.55;;;39.42;;
44428;SDS011;30134;47.866;-4.222;2023-08-17T01:14:19;50.85;;;37.00;;
44428;SDS011;30134;47.866;-4.222;2023-08-17T01:16:53;51.30;;;36.75;;
44428;SDS011;30134;47.866;-4.222;2023-08-17T01:19:52;46.37;;;33.63;;
44428;SDS011;30134;47.866;-4.222;2023-08-17T01:22:20;43.72;;;32.95;;
44428;SDS011;30134;47.866;-4.222;2023-08-17T01:24:48;43.15;;;32.03;;
44428;SDS011;30134;47.866;-4.222;2023-08-17T01:27:14;43.03;;;31.55;;
44428;SDS011;30134;47.866;-4.222;2023-08-17T01:29:40;39.53;;;29.52;;
44428;SDS011;30134;47.866;-4.222;2023-08-17T01:32:10;37.13;;;27.98;;
44428;SDS011;30134;47.866;-4.222;2023-08-17T01:35:04;33.40;;;25.52;;
44428;SDS011;30134;47.866;-4.222;2023-08-17T01:37:58;33.55;;;24.85;;
44428;SDS011;30134;47.866;-4.222;2023-08-17T01:40:29;33.03;;;24.83;;
44428;SDS011;30134;47.866;-4.222;2023-08-17T01:43:15;32.42;;;24.10;;
44428;SDS011;30134;47.866;-4.222;2023-08-17T01:45:42;31.88;;;23.55;;
44428;SDS011;30134;47.866;-4.222;2023-08-17T01:48:08;31.10;;;22.45;;
44428;SDS011;30134;47.866;-4.222;2023-08-17T01:50:34;29.40;;;22.42;;
44428;SDS011;30134;47.866;-4.222;2023-08-17T01:53:19;26.65;;;20.80;;
44428;SDS011;30134;47.866;-4.222;2023-08-17T01:55:44;31.13;;;19.92;;
44428;SDS011;30134;47.866;-4.222;2023-08-17T01:58:10;27.67;;;20.17;;
44428;SDS011;30134;47.866;-4.222;2023-08-17T02:03:39;24.08;;;18.77;;
44428;SDS011;30134;47.866;-4.222;2023-08-17T02:06:23;22.83;;;17.55;;
44428;SDS011;30134;47.866;-4.222;2023-08-17T02:08:49;20.50;;;16.42;;
44428;SDS011;30134;47.866;-4.222;2023-08-17T02:11:16;21.60;;;16.35;;
44428;SDS011;30134;47.866;-4.222;2023-08-17T02:13:44;20.35;;;15.55;;
44428;SDS011;30134;47.866;-4.222;2023-08-17T02:16:10;20.98;;;15.55;;
44428;SDS011;30134;47.866;-4.222;2023-08-17T02:18:36;18.23;;;14.30;;
44428;SDS011;30134;47.866;-4.222;2023-08-17T02:21:02;17.77;;;13.57;;
44428;SDS011;30134;47.866;-4.222;2023-08-17T02:23:29;18.33;;;13.88;;
44428;SDS011;30134;47.866;-4.222;2023-08-17T02:25:55;16.55;;;12.90;;
44428;SDS011;30134;47.866;-4.222;2023-08-17T02:28:21;17.63;;;12.85;;
44428;SDS011;30134;47.866;-4.222;2023-08-17T02:30:47;15.20;;;11.70;;
44428;SDS011;30134;47.866;-4.222;2023-08-17T02:33:14;15.07;;;11.27;;
44428;SDS011;30134;47.866;-4.222;2023-08-17T02:35:40;14.65;;;10.70;;
44428;SDS011;30134;47.866;-4.222;2023-08-17T02:38:24;12.35;;;10.02;;
44428;SDS011;30134;47.866;-4.222;2023-08-17T02:40:50;56.38;;;39.15;;
44428;SDS011;30134;47.866;-4.222;2023-08-17T02:43:16;132.32;;;88.85;;
44428;SDS011;30134;47.866;-4.222;2023-08-17T02:45:42;151.00;;;106.80;;
44428;SDS011;30134;47.866;-4.222;2023-08-17T02:48:08;152.00;;;107.78;;
44428;SDS011;30134;47.866;-4.222;2023-08-17T02:50:34;132.75;;;94.70;;
44428;SDS011;30134;47.866;-4.222;2023-08-17T02:53:00;103.32;;;73.55;;
44428;SDS011;30134;47.866;-4.222;2023-08-17T02:58:11;77.70;;;54.95;;
44428;SDS011;30134;47.866;-4.222;2023-08-17T03:00:37;73.22;;;51.33;;
44428;SDS011;30134;47.866;-4.222;2023-08-17T03:06:09;67.97;;;48.03;;
44428;SDS011;30134;47.866;-4.222;2023-08-17T03:11:20;60.47;;;44.17;;
44428;SDS011;30134;47.866;-4.222;2023-08-17T03:13:46;54.88;;;41.63;;
44428;SDS011;30134;47.866;-4.222;2023-08-17T03:16:13;55.20;;;40.13;;
44428;SDS011;30134;47.866;-4.222;2023-08-17T03:18:40;51.92;;;38.00;;
44428;SDS011;30134;47.866;-4.222;2023-08-17T03:21:08;50.83;;;38.22;;
44428;SDS011;30134;47.866;-4.222;2023-08-17T03:23:34;48.95;;;36.42;;
44428;SDS011;30134;47.866;-4.222;2023-08-17T03:26:00;46.75;;;34.20;;
44428;SDS011;30134;47.866;-4.222;2023-08-17T03:28:29;46.55;;;33.50;;
44428;SDS011;30134;47.866;-4.222;2023-08-17T03:30:55;44.10;;;31.33;;
44428;SDS011;30134;47.866;-4.222;2023-08-17T03:33:21;41.50;;;30.45;;
44428;SDS011;30134;47.866;-4.222;2023-08-17T03:35:47;35.30;;;27.20;;
44428;SDS011;30134;47.866;-4.222;2023-08-17T03:38:13;35.33;;;26.45;;
44428;SDS011;30134;47.866;-4.222;2023-08-17T03:40:58;37.65;;;26.75;;
44428;SDS011;30134;47.866;-4.222;2023-08-17T03:43:23;34.75;;;26.08;;
44428;SDS011;30134;47.866;-4.222;2023-08-17T03:45:51;31.10;;;24.35;;
44428;SDS011;30134;47.866;-4.222;2023-08-17T03:48:17;29.23;;;21.67;;
44428;SDS011;30134;47.866;-4.222;2023-08-17T03:53:28;28.33;;;20.73;;
44428;SDS011;30134;47.866;-4.222;2023-08-17T03:55:59;28.00;;;21.40;;
44428;SDS011;30134;47.866;-4.222;2023-08-17T03:58:25;24.33;;;18.48;;
44428;SDS011;30134;47.866;-4.222;2023-08-17T04:00:54;25.50;;;19.38;;
44428;SDS011;30134;47.866;-4.222;2023-08-17T04:06:05;23.88;;;17.65;;
44428;SDS011;30134;47.866;-4.222;2023-08-17T04:11:17;20.38;;;15.88;;
44428;SDS011;30134;47.866;-4.222;2023-08-17T04:13:43;22.85;;;16.02;;
44428;SDS011;30134;47.866;-4.222;2023-08-17T04:16:09;19.85;;;15.43;;
44428;SDS011;30134;47.866;-4.222;2023-08-17T04:18:35;18.75;;;14.27;;
44428;SDS011;30134;47.866;-4.222;2023-08-17T04:21:01;17.98;;;13.20;;
44428;SDS011;30134;47.866;-4.222;2023-08-17T04:26:11;15.02;;;11.73;;
44428;SDS011;30134;47.866;-4.222;2023-08-17T04:31:40;15.32;;;11.98;;
44428;SDS011;30134;47.866;-4.222;2023-08-17T04:34:06;14.80;;;11.00;;
44428;SDS011;30134;47.866;-4.222;2023-08-17T04:36:32;13.63;;;11.02;;
44428;SDS011;30134;47.866;-4.222;2023-08-17T04:41:30;13.77;;;10.25;;
44428;SDS011;30134;47.866;-4.222;2023-08-17T04:47:00;14.07;;;9.80;;
44428;SDS011;30134;47.866;-4.222;2023-08-17T04:49:26;10.63;;;8.55;;
44428;SDS011;30134;47.866;-4.222;2023-08-17T04:51:52;11.75;;;8.77;;
44428;SDS011;30134;47.866;-4.222;2023-08-17T04:54:18;10.75;;;8.25;;
44428;SDS011;30134;47.866;-4.222;2023-08-17T04:56:44;9.90;;;7.80;;
44428;SDS011;30134;47.866;-4.222;2023-08-17T05:02:13;8.90;;;7.00;;
44428;SDS011;30134;47.866;-4.222;2023-08-17T05:04:39;9.25;;;7.00;;
44428;SDS011;30134;47.866;-4.222;2023-08-17T05:09:50;9.38;;;6.70;;
44428;SDS011;30134;47.866;-4.222;2023-08-17T05:12:16;8.15;;;6.22;;
44428;SDS011;30134;47.866;-4.222;2023-08-17T05:14:45;7.90;;;5.90;;
44428;SDS011;30134;47.866;-4.222;2023-08-17T05:17:29;6.95;;;5.22;;
44428;SDS011;30134;47.866;-4.222;2023-08-17T05:19:55;7.22;;;5.38;;
44428;SDS011;30134;47.866;-4.222;2023-08-17T05:22:21;6.47;;;5.22;;
44428;SDS011;30134;47.866;-4.222;2023-08-17T05:25:05;7.15;;;5.40;;
44428;SDS011;30134;47.866;-4.222;2023-08-17T05:27:32;5.50;;;4.72;;
44428;SDS011;30134;47.866;-4.222;2023-08-17T05:29:58;7.80;;;5.10;;
44428;SDS011;30134;47.866;-4.222;2023-08-17T05:33:01;6.38;;;4.20;;
44428;SDS011;30134;47.866;-4.222;2023-08-17T05:35:27;6.40;;;4.22;;
44428;SDS011;30134;47.866;-4.222;2023-08-17T05:37:54;6.57;;;4.50;;
44428;SDS011;30134;47.866;-4.222;2023-08-17T05:43:05;4.45;;;3.67;;
44428;SDS011;30134;47.866;-4.222;2023-08-17T05:45:31;4.88;;;3.60;;
44428;SDS011;30134;47.866;-4.222;2023-08-17T05:47:57;4.80;;;3.50;;
44428;SDS011;30134;47.866;-4.222;2023-08-17T05:50:23;3.75;;;3.28;;
44428;SDS011;30134;47.866;-4.222;2023-08-17T05:55:33;3.45;;;2.92;;
44428;SDS011;30134;47.866;-4.222;2023-08-17T05:58:00;4.07;;;3.10;;
44428;SDS011;30134;47.866;-4.222;2023-08-17T06:00:28;4.65;;;3.05;;
44428;SDS011;30134;47.866;-4.222;2023-08-17T06:02:54;3.50;;;3.00;;
44428;SDS011;30134;47.866;-4.222;2023-08-17T06:05:39;4.78;;;2.95;;
44428;SDS011;30134;47.866;-4.222;2023-08-17T06:08:08;3.75;;;2.88;;
44428;SDS011;30134;47.866;-4.222;2023-08-17T06:10:34;4.63;;;2.80;;
44428;SDS011;30134;47.866;-4.222;2023-08-17T06:13:01;3.17;;;2.58;;
44428;SDS011;30134;47.866;-4.222;2023-08-17T06:15:27;2.38;;;2.08;;
44428;SDS011;30134;47.866;-4.222;2023-08-17T06:17:53;3.17;;;2.50;;
44428;SDS011;30134;47.866;-4.222;2023-08-17T06:20:22;3.65;;;2.40;;
44428;SDS011;30134;47.866;-4.222;2023-08-17T06:22:48;3.47;;;2.70;;
44428;SDS011;30134;47.866;-4.222;2023-08-17T06:25:15;3.25;;;2.30;;
44428;SDS011;30134;47.866;-4.222;2023-08-17T06:28:00;2.70;;;2.15;;
44428;SDS011;30134;47.866;-4.222;2023-08-17T06:30:28;2.35;;;2.00;;
44428;SDS011;30134;47.866;-4.222;2023-08-17T06:33:17;2.53;;;2.10;;
44428;SDS011;30134;47.866;-4.222;2023-08-17T06:35:43;2.53;;;2.08;;
44428;SDS011;30134;47.866;-4.222;2023-08-17T06:38:09;2.20;;;1.80;;
44428;SDS011;30134;47.866;-4.222;2023-08-17T06:40:35;2.92;;;1.85;;
44428;SDS011;30134;47.866;-4.222;2023-08-17T06:43:01;2.80;;;1.85;;
44428;SDS011;30134;47.866;-4.222;2023-08-17T06:45:28;2.05;;;1.83;;
44428;SDS011;30134;47.866;-4.222;2023-08-17T06:47:56;2.65;;;1.70;;
44428;SDS011;30134;47.866;-4.222;2023-08-17T06:50:22;2.10;;;1.88;;
44428;SDS011;30134;47.866;-4.222;2023-08-17T06:52:48;2.80;;;1.70;;
44428;SDS011;30134;47.866;-4.222;2023-08-17T06:55:33;2.05;;;1.70;;
44428;SDS011;30134;47.866;-4.222;2023-08-17T06:58:36;2.47;;;1.45;;
44428;SDS011;30134;47.866;-4.222;2023-08-17T07:01:02;2.53;;;1.67;;
44428;SDS011;30134;47.866;-4.222;2023-08-17T07:03:46;2.28;;;1.50;;
44428;SDS011;30134;47.866;-4.222;2023-08-17T07:06:13;3.10;;;1.95;;
44428;SDS011;30134;47.866;-4.222;2023-08-17T07:08:39;2.33;;;1.65;;
44428;SDS011;30134;47.866;-4.222;2023-08-17T07:11:05;1.60;;;1.40;;
44428;SDS011;30134;47.866;-4.222;2023-08-17T07:13:50;2.22;;;1.40;;
44428;SDS011;30134;47.866;-4.222;2023-08-17T07:16:16;1.70;;;1.35;;
44428;SDS011;30134;47.866;-4.222;2023-08-17T07:18:45;1.98;;;1.52;;
44428;SDS011;30134;47.866;-4.222;2023-08-17T07:21:11;2.35;;;1.65;;
44428;SDS011;30134;47.866;-4.222;2023-08-17T07:23:37;2.55;;;1.50;;
44428;SDS011;30134;47.866;-4.222;2023-08-17T07:26:03;2.10;;;1.40;;
44428;SDS011;30134;47.866;-4.222;2023-08-17T07:28:29;1.30;;;1.20;;
44428;SDS011;30134;47.866;-4.222;2023-08-17T07:31:14;1.40;;;1.27;;
44428;SDS011;30134;47.866;-4.222;2023-08-17T07:33:40;1.83;;;1.50;;
44428;SDS011;30134;47.866;-4.222;2023-08-17T07:36:07;1.52;;;1.10;;
44428;SDS011;30134;47.866;-4.222;2023-08-17T07:38:33;1.45;;;1.25;;
44428;SDS011;30134;47.866;-4.222;2023-08-17T07:41:17;1.40;;;1.10;;
44428;SDS011;30134;47.866;-4.222;2023-08-17T07:43:43;2.05;;;1.30;;
44428;SDS011;30134;47.866;-4.222;2023-08-17T07:46:09;1.65;;;1.10;;
44428;SDS011;30134;47.866;-4.222;2023-08-17T07:48:35;1.10;;;1.00;;
44428;SDS011;30134;47.866;-4.222;2023-08-17T07:51:01;1.20;;;1.10;;
44428;SDS011;30134;47.866;-4.222;2023-08-17T07:53:27;1.10;;;1.00;;
44428;SDS011;30134;47.866;-4.222;2023-08-17T07:58:57;1.35;;;1.10;;
44428;SDS011;30134;47.866;-4.222;2023-08-17T08:01:23;1.23;;;1.08;;
44428;SDS011;30134;47.866;-4.222;2023-08-17T08:06:52;1.30;;;0.98;;
44428;SDS011;30134;47.866;-4.222;2023-08-17T08:09:19;2.25;;;1.20;;
44428;SDS011;30134;47.866;-4.222;2023-08-17T08:12:05;1.35;;;1.00;;
44428;SDS011;30134;47.866;-4.222;2023-08-17T08:14:33;1.55;;;0.98;;
44428;SDS011;30134;47.866;-4.222;2023-08-17T08:20:03;1.15;;;0.90;;
44428;SDS011;30134;47.866;-4.222;2023-08-17T08:22:30;1.55;;;1.05;;
44428;SDS011;30134;47.866;-4.222;2023-08-17T08:25:33;1.67;;;1.13;;
44428;SDS011;30134;47.866;-4.222;2023-08-17T08:27:59;1.65;;;1.20;;
44428;SDS011;30134;47.866;-4.222;2023-08-17T08:35:56;1.00;;;0.93;;
44428;SDS011;30134;47.866;-4.222;2023-08-17T08:38:40;1.08;;;0.90;;
44428;SDS011;30134;47.866;-4.222;2023-08-17T08:41:07;0.80;;;0.80;;
44428;SDS011;30134;47.866;-4.222;2023-08-17T08:43:34;0.70;;;0.70;;
44428;SDS011;30134;47.866;-4.222;2023-08-17T08:46:01;1.98;;;1.00;;
44428;SDS011;30134;47.866;-4.222;2023-08-17T08:48:29;1.60;;;0.90;;
44428;SDS011;30134;47.866;-4.222;2023-08-17T08:51:13;0.95;;;0.82;;
44428;SDS011;30134;47.866;-4.222;2023-08-17T08:53:45;1.33;;;0.93;;
44428;SDS011;30134;47.866;-4.222;2023-08-17T08:56:34;4.30;;;1.58;;
44428;SDS011;30134;47.866;-4.222;2023-08-17T08:59:03;2.65;;;1.52;;
44428;SDS011;30134;47.866;-4.222;2023-08-17T09:01:48;6.32;;;2.00;;
44428;SDS011;30134;47.866;-4.222;2023-08-17T09:04:15;6.78;;;1.95;;
44428;SDS011;30134;47.866;-4.222;2023-08-17T09:07:00;3.58;;;1.55;;
44428;SDS011;30134;47.866;-4.222;2023-08-17T09:09:26;5.82;;;1.48;;
44428;SDS011;30134;47.866;-4.222;2023-08-17T09:12:11;4.30;;;1.70;;
44428;SDS011;30134;47.866;-4.222;2023-08-17T09:14:56;4.93;;;1.58;;
44428;SDS011;30134;47.866;-4.222;2023-08-17T09:17:40;4.82;;;1.83;;
44428;SDS011;30134;47.866;-4.222;2023-08-17T09:20:34;3.42;;;1.70;;
44428;SDS011;30134;47.866;-4.222;2023-08-17T09:23:09;6.53;;;1.90;;
44428;SDS011;30134;47.866;-4.222;2023-08-17T09:26:05;6.30;;;1.65;;
44428;SDS011;30134;47.866;-4.222;2023-08-17T09:28:34;4.55;;;1.60;;
44428;SDS011;30134;47.866;-4.222;2023-08-17T09:31:05;5.28;;;1.80;;
44428;SDS011;30134;47.866;-4.222;2023-08-17T09:33:31;5.38;;;1.60;;
44428;SDS011;30134;47.866;-4.222;2023-08-17T09:35:58;5.03;;;1.80;;
44428;SDS011;30134;47.866;-4.222;2023-08-17T09:39:02;3.25;;;1.77;;
44428;SDS011;30134;47.866;-4.222;2023-08-17T09:41:28;3.22;;;1.70;;
44428;SDS011;30134;47.866;-4.222;2023-08-17T09:43:55;3.92;;;1.88;;
44428;SDS011;30134;47.866;-4.222;2023-08-17T09:46:41;8.27;;;1.75;;
44428;SDS011;30134;47.866;-4.222;2023-08-17T09:49:29;5.72;;;2.00;;
44428;SDS011;30134;47.866;-4.222;2023-08-17T09:52:01;3.67;;;1.50;;
44428;SDS011;30134;47.866;-4.222;2023-08-17T09:54:27;3.80;;;1.83;;
44428;SDS011;30134;47.866;-4.222;2023-08-17T09:56:57;3.47;;;1.85;;
44428;SDS011;30134;47.866;-4.222;2023-08-17T09:59:23;5.13;;;2.20;;
44428;SDS011;30134;47.866;-4.222;2023-08-17T10:01:50;6.65;;;1.85;;
44428;SDS011;30134;47.866;-4.222;2023-08-17T10:04:35;8.18;;;2.03;;
44428;SDS011;30134;47.866;-4.222;2023-08-17T10:07:41;3.28;;;1.50;;
44428;SDS011;30134;47.866;-4.222;2023-08-17T10:10:13;3.53;;;1.73;;
44428;SDS011;30134;47.866;-4.222;2023-08-17T10:13:11;4.47;;;1.70;;
44428;SDS011;30134;47.866;-4.222;2023-08-17T10:16:02;6.03;;;2.13;;
44428;SDS011;30134;47.866;-4.222;2023-08-17T10:18:41;5.00;;;1.63;;
44428;SDS011;30134;47.866;-4.222;2023-08-17T10:21:43;6.85;;;2.20;;
44428;SDS011;30134;47.866;-4.222;2023-08-17T10:27:20;34.80;;;20.77;;
44428;SDS011;30134;47.866;-4.222;2023-08-17T10:30:05;14.02;;;8.20;;
44428;SDS011;30134;47.866;-4.222;2023-08-17T10:32:34;11.18;;;5.43;;
44428;SDS011;30134;47.866;-4.222;2023-08-17T10:35:00;9.75;;;4.70;;
44428;SDS011;30134;47.866;-4.222;2023-08-17T10:37:28;7.90;;;3.58;;
44428;SDS011;30134;47.866;-4.222;2023-08-17T10:39:55;9.10;;;3.20;;
44428;SDS011;30134;47.866;-4.222;2023-08-17T10:42:32;9.85;;;2.90;;
44428;SDS011;30134;47.866;-4.222;2023-08-17T10:45:01;6.55;;;2.40;;
44428;SDS011;30134;47.866;-4.222;2023-08-17T10:51:09;9.77;;;2.28;;
44428;SDS011;30134;47.866;-4.222;2023-08-17T10:53:38;9.23;;;2.28;;
44428;SDS011;30134;47.866;-4.222;2023-08-17T10:59:46;4.43;;;1.80;;
44428;SDS011;30134;47.866;-4.222;2023-08-17T11:03:01;7.03;;;2.25;;
44428;SDS011;30134;47.866;-4.222;2023-08-17T11:08:39;5.40;;;2.10;;
44428;SDS011;30134;47.866;-4.222;2023-08-17T11:11:16;6.35;;;2.40;;
44428;SDS011;30134;47.866;-4.222;2023-08-17T11:13:46;5.47;;;1.90;;
44428;SDS011;30134;47.866;-4.222;2023-08-17T11:16:13;6.85;;;2.97;;
44428;SDS011;30134;47.866;-4.222;2023-08-17T11:18:44;4.43;;;2.30;;
44428;SDS011;30134;47.866;-4.222;2023-08-17T11:21:14;6.18;;;2.20;;
44428;SDS011;30134;47.866;-4.222;2023-08-17T11:23:41;5.90;;;2.10;;
44428;SDS011;30134;47.866;-4.222;2023-08-17T11:28:52;4.13;;;1.88;;
44428;SDS011;30134;47.866;-4.222;2023-08-17T11:31:18;5.65;;;2.28;;
44428;SDS011;30134;47.866;-4.222;2023-08-17T11:34:04;8.93;;;2.10;;
44428;SDS011;30134;47.866;-4.222;2023-08-17T11:36:30;7.38;;;2.40;;
44428;SDS011;30134;47.866;-4.222;2023-08-17T11:38:57;4.70;;;2.20;;
44428;SDS011;30134;47.866;-4.222;2023-08-17T11:41:46;5.72;;;2.00;;
44428;SDS011;30134;47.866;-4.222;2023-08-17T11:44:13;6.82;;;2.20;;
44428;SDS011;30134;47.866;-4.222;2023-08-17T11:46:40;4.35;;;2.03;;
44428;SDS011;30134;47.866;-4.222;2023-08-17T11:49:09;4.45;;;2.17;;
44428;SDS011;30134;47.866;-4.222;2023-08-17T11:51:36;7.70;;;2.10;;
44428;SDS011;30134;47.866;-4.222;2023-08-17T11:54:02;4.68;;;2.10;;
44428;SDS011;30134;47.866;-4.222;2023-08-17T11:59:35;19.67;;;2.33;;
44428;SDS011;30134;47.866;-4.222;2023-08-17T12:02:01;6.95;;;2.40;;
44428;SDS011;30134;47.866;-4.222;2023-08-17T12:04:28;6.13;;;2.58;;
44428;SDS011;30134;47.866;-4.222;2023-08-17T12:09:38;6.50;;;2.53;;
44428;SDS011;30134;47.866;-4.222;2023-08-17T12:12:05;7.80;;;2.20;;
44428;SDS011;30134;47.866;-4.222;2023-08-17T12:14:32;6.75;;;2.10;;
44428;SDS011;30134;47.866;-4.222;2023-08-17T12:16:58;4.57;;;1.80;;
44428;SDS011;30134;47.866;-4.222;2023-08-17T12:19:43;5.57;;;2.20;;
44428;SDS011;30134;47.866;-4.222;2023-08-17T12:22:13;16.20;;;10.30;;
44428;SDS011;30134;47.866;-4.222;2023-08-17T12:24:40;6.13;;;3.33;;
44428;SDS011;30134;47.866;-4.222;2023-08-17T12:27:06;6.93;;;3.00;;
44428;SDS011;30134;47.866;-4.222;2023-08-17T12:29:51;6.10;;;2.83;;
44428;SDS011;30134;47.866;-4.222;2023-08-17T12:32:18;8.20;;;2.95;;
44428;SDS011;30134;47.866;-4.222;2023-08-17T12:34:45;4.65;;;2.10;;
44428;SDS011;30134;47.866;-4.222;2023-08-17T12:37:17;4.68;;;2.40;;
44428;SDS011;30134;47.866;-4.222;2023-08-17T12:39:47;3.85;;;2.00;;
44428;SDS011;30134;47.866;-4.222;2023-08-17T12:44:58;4.70;;;1.85;;
44428;SDS011;30134;47.866;-4.222;2023-08-17T12:47:42;4.43;;;1.83;;
44428;SDS011;30134;47.866;-4.222;2023-08-17T12:50:09;5.22;;;2.00;;
44428;SDS011;30134;47.866;-4.222;2023-08-17T12:52:35;7.07;;;2.22;;
44428;SDS011;30134;47.866;-4.222;2023-08-17T12:55:04;4.47;;;2.08;;
44428;SDS011;30134;47.866;-4.222;2023-08-17T12:57:30;5.43;;;2.00;;
44428;SDS011;30134;47.866;-4.222;2023-08-17T13:00:34;4.53;;;1.90;;
44428;SDS011;30134;47.866;-4.222;2023-08-17T13:03:00;4.65;;;2.17;;
44428;SDS011;30134;47.866;-4.222;2023-08-17T13:05:45;6.57;;;2.03;;
44428;SDS011;30134;47.866;-4.222;2023-08-17T13:08:11;5.50;;;2.00;;
44428;SDS011;30134;47.866;-4.222;2023-08-17T13:10:37;5.00;;;1.67;;
44428;SDS011;30134;47.866;-4.222;2023-08-17T13:13:03;6.35;;;2.20;;
44428;SDS011;30134;47.866;-4.222;2023-08-17T13:15:48;6.60;;;2.60;;
44428;SDS011;30134;47.866;-4.222;2023-08-17T13:18:15;6.00;;;1.95;;
44428;SDS011;30134;47.866;-4.222;2023-08-17T13:20:41;5.32;;;2.00;;
44428;SDS011;30134;47.866;-4.222;2023-08-17T13:23:08;5.85;;;2.38;;
44428;SDS011;30134;47.866;-4.222;2023-08-17T13:25:35;4.43;;;1.95;;
44428;SDS011;30134;47.866;-4.222;2023-08-17T13:31:05;8.60;;;2.25;;
44428;SDS011;30134;47.866;-4.222;2023-08-17T13:36:36;6.57;;;2.10;;
44428;SDS011;30134;47.866;-4.222;2023-08-17T13:39:02;6.75;;;2.15;;
44428;SDS011;30134;47.866;-4.222;2023-08-17T13:41:29;3.60;;;1.77;;
44428;SDS011;30134;47.866;-4.222;2023-08-17T13:43:55;4.57;;;2.00;;
44428;SDS011;30134;47.866;-4.222;2023-08-17T13:46:22;5.95;;;1.90;;
44428;SDS011;30134;47.866;-4.222;2023-08-17T13:48:49;6.03;;;2.40;;
44428;SDS011;30134;47.866;-4.222;2023-08-17T13:51:15;4.78;;;1.80;;
44428;SDS011;30134;47.866;-4.222;2023-08-17T13:53:41;5.88;;;1.75;;
44428;SDS011;30134;47.866;-4.222;2023-08-17T13:56:07;4.32;;;1.85;;
44428;SDS011;30134;47.866;-4.222;2023-08-17T13:58:52;3.97;;;2.00;;
44428;SDS011;30134;47.866;-4.222;2023-08-17T14:01:37;6.88;;;1.77;;
44428;SDS011;30134;47.866;-4.222;2023-08-17T14:04:03;3.67;;;1.77;;
44428;SDS011;30134;47.866;-4.222;2023-08-17T14:06:33;5.07;;;2.45;;
44428;SDS011;30134;47.866;-4.222;2023-08-17T14:08:59;5.50;;;2.08;;
44428;SDS011;30134;47.866;-4.222;2023-08-17T14:11:27;4.75;;;2.00;;
44428;SDS011;30134;47.866;-4.222;2023-08-17T14:13:54;6.35;;;1.90;;
44428;SDS011;30134;47.866;-4.222;2023-08-17T14:16:20;17.83;;;4.35;;
44428;SDS011;30134;47.866;-4.222;2023-08-17T14:24:17;6.72;;;2.75;;
44428;SDS011;30134;47.866;-4.222;2023-08-17T14:27:02;4.57;;;1.40;;
44428;SDS011;30134;47.866;-4.222;2023-08-17T14:29:47;7.65;;;2.03;;
44428;SDS011;30134;47.866;-4.222;2023-08-17T14:34:58;5.72;;;1.60;;
44428;SDS011;30134;47.866;-4.222;2023-08-17T14:40:09;9.77;;;1.75;;
44428;SDS011;30134;47.866;-4.222;2023-08-17T14:42:38;4.97;;;1.52;;
44428;SDS011;30134;47.866;-4.222;2023-08-17T14:45:05;3.72;;;1.55;;
44428;SDS011;30134;47.866;-4.222;2023-08-17T14:47:31;4.85;;;1.38;;
44428;SDS011;30134;47.866;-4.222;2023-08-17T14:49:57;3.13;;;1.52;;
44428;SDS011;30134;47.866;-4.222;2023-08-17T14:52:41;3.33;;;1.27;;
44428;SDS011;30134;47.866;-4.222;2023-08-17T14:55:08;3.30;;;1.38;;
44428;SDS011;30134;47.866;-4.222;2023-08-17T14:57:34;3.03;;;1.20;;
44428;SDS011;30134;47.866;-4.222;2023-08-17T15:00:18;3.33;;;1.23;;
44428;SDS011;30134;47.866;-4.222;2023-08-17T15:03:03;3.70;;;1.40;;
44428;SDS011;30134;47.866;-4.222;2023-08-17T15:05:30;7.50;;;1.48;;
44428;SDS011;30134;47.866;-4.222;2023-08-17T15:08:14;2.95;;;1.20;;
44428;SDS011;30134;47.866;-4.222;2023-08-17T15:10:41;3.05;;;1.42;;
44428;SDS011;30134;47.866;-4.222;2023-08-17T15:13:07;3.72;;;1.60;;
44428;SDS011;30134;47.866;-4.222;2023-08-17T15:15:52;5.85;;;1.75;;
44428;SDS011;30134;47.866;-4.222;2023-08-17T15:18:18;3.67;;;1.50;;
44428;SDS011;30134;47.866;-4.222;2023-08-17T15:21:03;2.42;;;1.30;;
44428;SDS011;30134;47.866;-4.222;2023-08-17T15:23:29;10.35;;;1.80;;
44428;SDS011;30134;47.866;-4.222;2023-08-17T15:25:55;4.47;;;1.58;;
44428;SDS011;30134;47.866;-4.222;2023-08-17T15:28:21;6.90;;;1.55;;
44428;SDS011;30134;47.866;-4.222;2023-08-17T15:30:49;5.82;;;1.70;;
44428;SDS011;30134;47.866;-4.222;2023-08-17T15:33:27;2.47;;;1.40;;
44428;SDS011;30134;47.866;-4.222;2023-08-17T15:35:54;4.85;;;1.40;;
44428;SDS011;30134;47.866;-4.222;2023-08-17T15:38:22;4.85;;;1.40;;
44428;SDS011;30134;47.866;-4.222;2023-08-17T15:40:51;3.97;;;1.67;;
44428;SDS011;30134;47.866;-4.222;2023-08-17T15:46:02;5.32;;;1.58;;
44428;SDS011;30134;47.866;-4.222;2023-08-17T15:49:06;4.82;;;1.55;;
44428;SDS011;30134;47.866;-4.222;2023-08-17T15:51:31;4.07;;;1.55;;
44428;SDS011;30134;47.866;-4.222;2023-08-17T15:56:43;3.63;;;1.33;;
44428;SDS011;30134;47.866;-4.222;2023-08-17T15:59:09;3.88;;;1.25;;
44428;SDS011;30134;47.866;-4.222;2023-08-17T16:01:36;5.63;;;1.45;;
44428;SDS011;30134;47.866;-4.222;2023-08-17T16:04:21;3.65;;;1.33;;
44428;SDS011;30134;47.866;-4.222;2023-08-17T16:06:47;5.22;;;1.48;;
44428;SDS011;30134;47.866;-4.222;2023-08-17T16:09:13;6.80;;;1.50;;
44428;SDS011;30134;47.866;-4.222;2023-08-17T16:11:40;4.20;;;1.60;;
44428;SDS011;30134;47.866;-4.222;2023-08-17T16:14:06;5.53;;;1.63;;
44428;SDS011;30134;47.866;-4.222;2023-08-17T16:16:32;2.33;;;1.20;;
44428;SDS011;30134;47.866;-4.222;2023-08-17T16:21:46;2.10;;;1.10;;
44428;SDS011;30134;47.866;-4.222;2023-08-17T16:24:12;3.42;;;1.40;;
44428;SDS011;30134;47.866;-4.222;2023-08-17T16:26:57;6.53;;;1.40;;
44428;SDS011;30134;47.866;-4.222;2023-08-17T16:29:24;4.35;;;1.52;;
44428;SDS011;30134;47.866;-4.222;2023-08-17T16:32:08;4.30;;;1.58;;
44428;SDS011;30134;47.866;-4.222;2023-08-17T16:34:35;8.50;;;1.50;;
44428;SDS011;30134;47.866;-4.222;2023-08-17T16:37:01;5.38;;;1.45;;
44428;SDS011;30134;47.866;-4.222;2023-08-17T16:39:27;4.25;;;1.40;;
44428;SDS011;30134;47.866;-4.222;2023-08-17T16:42:30;4.07;;;1.35;;
44428;SDS011;30134;47.866;-4.222;2023-08-17T16:44:57;7.75;;;1.38;;
44428;SDS011;30134;47.866;-4.222;2023-08-17T16:47:23;6.03;;;1.50;;
44428;SDS011;30134;47.866;-4.222;2023-08-17T16:52:38;8.52;;;1.83;;